Main page
METAR-TAF:

METAR-TAF

Airports :

Pittsfield Municipal Airport

Pittsfield, Massachusetts, United States

latitude: 42-25-38N, longitude: 073-17-21W, elevation: 1194 ft

Current weather observation

The report was made 31 minutes ago, at 03:54 UTC
Calm wind
Temperature 37°F
Humidity 65%
Pressure 29.91 in. Hg
Visibility: 10 miles
Clear sky

METAR: KPSF 250354Z AUTO 00000KT 10SM CLR 03/M03 A2991 RMK AO2 SLP127 T00281033

Time: 23:25 (04:25 UTC)

Forecast

The report was made 5 hours and 5 minutes ago, at 23:20 UTC
Forecast valid from 25 at 00 UTC to 25 at 24 UTC
Wind 3 mph from variable directions
Visibility: 6 miles
Broken clouds at a height of 10000 ft
From 25 at 1500 UTC
Wind 5 mph from the North
Visibility: 6 miles
Overcast at a height of 4000 ft
showers in vicinity
Probability 30%
from 25 at 20 UTC to 25 at 24 UTC
Visibility: 4 miles
Overcast at a height of 1000 ft
light rain, mist

TAF: KPSF 242320Z 2500/2524 VRB03KT P6SM BKN100 FM251500 36004KT P6SM VCSH OVC040 PROB30 2520/2524 4SM -RA BR OVC010

Weather observations and forecasts of more than 4000 airports (METAR and TAF reports).

The available stations are represented by yellow and red dots on the map.

Hover mouse over dot to see the name of the station.

Then click to see weather observations and forecasts.

To change the map : click on the green buttons with a black cross to zoom in, on the green button with a dash to zoom out, or on the green arrows for adjacent maps.


METAR-TAF: